sensor_id;sensor_type;location;lat;lon;timestamp;temperature;humidity
31979;DHT22;18502;43.574;1.276;2023-04-03T00:01:13;9.00;99.90
31979;DHT22;18502;43.574;1.276;2023-04-03T00:03:39;9.00;99.90
31979;DHT22;18502;43.574;1.276;2023-04-03T00:06:04;9.00;99.90
31979;DHT22;18502;43.574;1.276;2023-04-03T00:08:32;9.00;99.90
31979;DHT22;18502;43.574;1.276;2023-04-03T00:10:58;9.00;99.90
31979;DHT22;18502;43.574;1.276;2023-04-03T00:13:25;9.00;99.90
31979;DHT22;18502;43.574;1.276;2023-04-03T00:15:51;8.90;99.90
31979;DHT22;18502;43.574;1.276;2023-04-03T00:18:17;8.90;99.90
31979;DHT22;18502;43.574;1.276;2023-04-03T00:20:43;8.90;99.90
31979;DHT22;18502;43.574;1.276;2023-04-03T00:23:08;8.90;99.90
31979;DHT22;18502;43.574;1.276;2023-04-03T00:25:34;8.90;99.90
31979;DHT22;18502;43.574;1.276;2023-04-03T00:28:00;8.90;99.90
31979;DHT22;18502;43.574;1.276;2023-04-03T00:30:26;8.90;99.90
31979;DHT22;18502;43.574;1.276;2023-04-03T00:32:52;8.90;99.90
31979;DHT22;18502;43.574;1.276;2023-04-03T00:35:19;8.90;99.90
31979;DHT22;18502;43.574;1.276;2023-04-03T00:37:45;8.90;99.90
31979;DHT22;18502;43.574;1.276;2023-04-03T00:40:12;8.80;99.90
31979;DHT22;18502;43.574;1.276;2023-04-03T00:42:41;8.90;99.90
31979;DHT22;18502;43.574;1.276;2023-04-03T00:47:39;8.80;99.90
31979;DHT22;18502;43.574;1.276;2023-04-03T00:50:06;8.80;99.90
31979;DHT22;18502;43.574;1.276;2023-04-03T00:52:32;8.80;99.90
31979;DHT22;18502;43.574;1.276;2023-04-03T00:55:02;8.80;99.90
31979;DHT22;18502;43.574;1.276;2023-04-03T00:57:30;8.80;99.90
31979;DHT22;18502;43.574;1.276;2023-04-03T01:00:01;8.80;99.90
31979;DHT22;18502;43.574;1.276;2023-04-03T01:02:28;8.70;99.90
31979;DHT22;18502;43.574;1.276;2023-04-03T01:04:54;8.80;99.90
31979;DHT22;18502;43.574;1.276;2023-04-03T01:07:24;8.80;99.90
31979;DHT22;18502;43.574;1.276;2023-04-03T01:09:55;8.80;99.90
31979;DHT22;18502;43.574;1.276;2023-04-03T01:12:44;8.80;99.90
31979;DHT22;18502;43.574;1.276;2023-04-03T01:15:22;8.70;99.90
31979;DHT22;18502;43.574;1.276;2023-04-03T01:17:56;8.70;99.90
31979;DHT22;18502;43.574;1.276;2023-04-03T01:25:22;8.70;99.90
31979;DHT22;18502;43.574;1.276;2023-04-03T01:27:49;8.60;99.90
31979;DHT22;18502;43.574;1.276;2023-04-03T01:30:17;8.60;99.90
31979;DHT22;18502;43.574;1.276;2023-04-03T01:32:43;8.60;99.90
31979;DHT22;18502;43.574;1.276;2023-04-03T01:35:10;8.50;99.90
31979;DHT22;18502;43.574;1.276;2023-04-03T01:37:36;8.50;99.90
31979;DHT22;18502;43.574;1.276;2023-04-03T01:40:02;8.50;99.90
31979;DHT22;18502;43.574;1.276;2023-04-03T01:42:28;8.50;99.90
31979;DHT22;18502;43.574;1.276;2023-04-03T01:44:55;8.50;99.90
31979;DHT22;18502;43.574;1.276;2023-04-03T01:47:21;8.50;99.90
31979;DHT22;18502;43.574;1.276;2023-04-03T01:49:47;8.50;99.90
31979;DHT22;18502;43.574;1.276;2023-04-03T01:52:13;8.50;99.90
31979;DHT22;18502;43.574;1.276;2023-04-03T01:54:38;8.50;99.90
31979;DHT22;18502;43.574;1.276;2023-04-03T01:57:04;8.50;99.90
31979;DHT22;18502;43.574;1.276;2023-04-03T01:59:30;8.50;99.90
31979;DHT22;18502;43.574;1.276;2023-04-03T02:01:56;8.40;99.90
31979;DHT22;18502;43.574;1.276;2023-04-03T02:04:21;8.40;99.90
31979;DHT22;18502;43.574;1.276;2023-04-03T02:06:47;8.40;99.90
31979;DHT22;18502;43.574;1.276;2023-04-03T02:09:13;8.40;99.90
31979;DHT22;18502;43.574;1.276;2023-04-03T02:11:39;8.30;99.90
31979;DHT22;18502;43.574;1.276;2023-04-03T02:14:04;8.30;99.90
31979;DHT22;18502;43.574;1.276;2023-04-03T02:16:30;8.30;99.90
31979;DHT22;18502;43.574;1.276;2023-04-03T02:18:56;8.40;99.90
31979;DHT22;18502;43.574;1.276;2023-04-03T02:21:22;8.40;99.90
31979;DHT22;18502;43.574;1.276;2023-04-03T02:23:48;8.40;99.90
31979;DHT22;18502;43.574;1.276;2023-04-03T02:26:15;8.40;99.90
31979;DHT22;18502;43.574;1.276;2023-04-03T02:28:41;8.40;99.90
31979;DHT22;18502;43.574;1.276;2023-04-03T02:31:08;8.40;99.90
31979;DHT22;18502;43.574;1.276;2023-04-03T02:33:35;8.30;99.90
31979;DHT22;18502;43.574;1.276;2023-04-03T02:36:02;8.30;99.90
31979;DHT22;18502;43.574;1.276;2023-04-03T02:38:29;8.30;99.90
31979;DHT22;18502;43.574;1.276;2023-04-03T02:41:03;8.30;99.90
31979;DHT22;18502;43.574;1.276;2023-04-03T02:43:29;8.30;99.90
31979;DHT22;18502;43.574;1.276;2023-04-03T02:45:55;8.30;99.90
31979;DHT22;18502;43.574;1.276;2023-04-03T02:48:21;8.30;99.90
31979;DHT22;18502;43.574;1.276;2023-04-03T02:50:47;8.40;99.90
31979;DHT22;18502;43.574;1.276;2023-04-03T02:53:12;8.30;99.90
31979;DHT22;18502;43.574;1.276;2023-04-03T02:55:38;8.30;99.90
31979;DHT22;18502;43.574;1.276;2023-04-03T02:58:04;8.30;99.90
31979;DHT22;18502;43.574;1.276;2023-04-03T03:00:30;8.30;99.90
31979;DHT22;18502;43.574;1.276;2023-04-03T03:02:56;8.30;99.90
31979;DHT22;18502;43.574;1.276;2023-04-03T03:05:21;8.30;99.90
31979;DHT22;18502;43.574;1.276;2023-04-03T03:07:47;8.30;99.90
31979;DHT22;18502;43.574;1.276;2023-04-03T03:10:13;8.20;99.90
31979;DHT22;18502;43.574;1.276;2023-04-03T03:12:39;8.30;99.90
31979;DHT22;18502;43.574;1.276;2023-04-03T03:15:06;8.30;99.90
31979;DHT22;18502;43.574;1.276;2023-04-03T03:17:32;8.30;99.90
31979;DHT22;18502;43.574;1.276;2023-04-03T03:19:58;8.30;99.90
31979;DHT22;18502;43.574;1.276;2023-04-03T03:22:24;8.30;99.90
31979;DHT22;18502;43.574;1.276;2023-04-03T03:24:50;8.30;99.90
31979;DHT22;18502;43.574;1.276;2023-04-03T03:27:15;8.30;99.90
31979;DHT22;18502;43.574;1.276;2023-04-03T03:29:42;8.30;99.90
31979;DHT22;18502;43.574;1.276;2023-04-03T03:32:08;8.20;99.90
31979;DHT22;18502;43.574;1.276;2023-04-03T03:34:33;8.20;99.90
31979;DHT22;18502;43.574;1.276;2023-04-03T03:36:59;8.20;99.90
31979;DHT22;18502;43.574;1.276;2023-04-03T03:39:25;8.20;99.90
31979;DHT22;18502;43.574;1.276;2023-04-03T03:41:50;8.20;99.90
31979;DHT22;18502;43.574;1.276;2023-04-03T03:44:19;8.30;99.90
31979;DHT22;18502;43.574;1.276;2023-04-03T03:46:44;8.30;99.90
31979;DHT22;18502;43.574;1.276;2023-04-03T03:49:10;8.30;99.90
31979;DHT22;18502;43.574;1.276;2023-04-03T03:51:37;8.30;99.90
31979;DHT22;18502;43.574;1.276;2023-04-03T03:54:03;8.30;99.90
31979;DHT22;18502;43.574;1.276;2023-04-03T03:56:29;8.20;99.90
31979;DHT22;18502;43.574;1.276;2023-04-03T03:58:55;8.20;99.90
31979;DHT22;18502;43.574;1.276;2023-04-03T04:01:22;8.20;99.90
31979;DHT22;18502;43.574;1.276;2023-04-03T04:03:48;8.20;99.90
31979;DHT22;18502;43.574;1.276;2023-04-03T04:06:14;8.30;99.90
31979;DHT22;18502;43.574;1.276;2023-04-03T04:08:40;8.30;99.90
31979;DHT22;18502;43.574;1.276;2023-04-03T04:11:06;8.20;99.90
31979;DHT22;18502;43.574;1.276;2023-04-03T04:13:32;8.30;99.90
31979;DHT22;18502;43.574;1.276;2023-04-03T04:15:57;8.30;99.90
31979;DHT22;18502;43.574;1.276;2023-04-03T04:18:23;8.30;99.90
31979;DHT22;18502;43.574;1.276;2023-04-03T04:20:49;8.30;99.90
31979;DHT22;18502;43.574;1.276;2023-04-03T04:23:16;8.30;99.90
31979;DHT22;18502;43.574;1.276;2023-04-03T04:25:45;8.30;99.90
31979;DHT22;18502;43.574;1.276;2023-04-03T04:28:11;8.30;99.90
31979;DHT22;18502;43.574;1.276;2023-04-03T04:30:38;8.30;99.90
31979;DHT22;18502;43.574;1.276;2023-04-03T04:33:03;8.30;99.90
31979;DHT22;18502;43.574;1.276;2023-04-03T04:35:29;8.40;99.90
31979;DHT22;18502;43.574;1.276;2023-04-03T04:37:55;8.40;99.90
31979;DHT22;18502;43.574;1.276;2023-04-03T04:40:21;8.30;99.90
31979;DHT22;18502;43.574;1.276;2023-04-03T04:42:46;8.40;99.90
31979;DHT22;18502;43.574;1.276;2023-04-03T04:45:12;8.40;99.90
31979;DHT22;18502;43.574;1.276;2023-04-03T04:47:38;8.40;99.90
31979;DHT22;18502;43.574;1.276;2023-04-03T04:50:04;8.40;99.90
31979;DHT22;18502;43.574;1.276;2023-04-03T04:52:30;8.30;99.90
31979;DHT22;18502;43.574;1.276;2023-04-03T04:54:55;8.40;99.90
31979;DHT22;18502;43.574;1.276;2023-04-03T04:57:21;8.40;99.90
31979;DHT22;18502;43.574;1.276;2023-04-03T04:59:47;8.40;99.90
31979;DHT22;18502;43.574;1.276;2023-04-03T05:02:12;8.40;99.90
31979;DHT22;18502;43.574;1.276;2023-04-03T05:04:38;8.40;99.90
31979;DHT22;18502;43.574;1.276;2023-04-03T05:07:03;8.40;99.90
31979;DHT22;18502;43.574;1.276;2023-04-03T05:09:30;8.40;99.90
31979;DHT22;18502;43.574;1.276;2023-04-03T05:11:55;8.40;99.90
31979;DHT22;18502;43.574;1.276;2023-04-03T05:14:21;8.40;99.90
31979;DHT22;18502;43.574;1.276;2023-04-03T05:16:47;8.40;99.90
31979;DHT22;18502;43.574;1.276;2023-04-03T05:19:13;8.40;99.90
31979;DHT22;18502;43.574;1.276;2023-04-03T05:21:39;8.40;99.90
31979;DHT22;18502;43.574;1.276;2023-04-03T05:24:05;8.50;99.90
31979;DHT22;18502;43.574;1.276;2023-04-03T05:26:34;8.40;99.90
31979;DHT22;18502;43.574;1.276;2023-04-03T05:29:00;8.40;99.90
31979;DHT22;18502;43.574;1.276;2023-04-03T05:31:26;8.40;99.90
31979;DHT22;18502;43.574;1.276;2023-04-03T05:33:54;8.40;99.90
31979;DHT22;18502;43.574;1.276;2023-04-03T05:36:20;8.40;99.90
31979;DHT22;18502;43.574;1.276;2023-04-03T05:38:46;8.30;99.90
31979;DHT22;18502;43.574;1.276;2023-04-03T05:41:12;8.30;99.90
31979;DHT22;18502;43.574;1.276;2023-04-03T05:43:38;8.30;99.90
31979;DHT22;18502;43.574;1.276;2023-04-03T05:46:08;8.30;99.90
31979;DHT22;18502;43.574;1.276;2023-04-03T05:48:34;8.30;99.90
31979;DHT22;18502;43.574;1.276;2023-04-03T05:50:59;8.20;99.90
31979;DHT22;18502;43.574;1.276;2023-04-03T05:53:28;8.30;99.90
31979;DHT22;18502;43.574;1.276;2023-04-03T05:55:54;8.20;99.90
31979;DHT22;18502;43.574;1.276;2023-04-03T05:58:20;8.30;99.90
31979;DHT22;18502;43.574;1.276;2023-04-03T06:00:46;8.30;99.90
31979;DHT22;18502;43.574;1.276;2023-04-03T06:03:12;8.30;99.90
31979;DHT22;18502;43.574;1.276;2023-04-03T06:05:37;8.30;99.90
31979;DHT22;18502;43.574;1.276;2023-04-03T06:08:03;8.30;99.90
31979;DHT22;18502;43.574;1.276;2023-04-03T06:10:29;8.30;99.90
31979;DHT22;18502;43.574;1.276;2023-04-03T06:12:55;8.40;99.90
31979;DHT22;18502;43.574;1.276;2023-04-03T06:15:21;8.40;99.90
31979;DHT22;18502;43.574;1.276;2023-04-03T06:17:47;8.40;99.90
31979;DHT22;18502;43.574;1.276;2023-04-03T06:20:13;8.50;99.90
31979;DHT22;18502;43.574;1.276;2023-04-03T06:22:39;8.40;99.90
31979;DHT22;18502;43.574;1.276;2023-04-03T06:25:05;8.50;99.90
31979;DHT22;18502;43.574;1.276;2023-04-03T06:27:31;8.50;99.90
31979;DHT22;18502;43.574;1.276;2023-04-03T06:29:57;8.60;99.90
31979;DHT22;18502;43.574;1.276;2023-04-03T06:32:23;8.50;99.90
31979;DHT22;18502;43.574;1.276;2023-04-03T06:34:48;8.60;99.90
31979;DHT22;18502;43.574;1.276;2023-04-03T06:37:19;8.60;99.90
31979;DHT22;18502;43.574;1.276;2023-04-03T06:39:46;8.70;99.90
31979;DHT22;18502;43.574;1.276;2023-04-03T06:42:11;8.80;99.90
31979;DHT22;18502;43.574;1.276;2023-04-03T06:44:37;8.80;99.90
31979;DHT22;18502;43.574;1.276;2023-04-03T06:47:03;8.80;99.90
31979;DHT22;18502;43.574;1.276;2023-04-03T06:49:29;8.90;99.90
31979;DHT22;18502;43.574;1.276;2023-04-03T06:51:55;8.90;99.90
31979;DHT22;18502;43.574;1.276;2023-04-03T06:54:22;9.00;99.90
31979;DHT22;18502;43.574;1.276;2023-04-03T06:56:48;9.00;99.90
31979;DHT22;18502;43.574;1.276;2023-04-03T06:59:14;9.00;99.90
31979;DHT22;18502;43.574;1.276;2023-04-03T07:01:40;9.10;99.90
31979;DHT22;18502;43.574;1.276;2023-04-03T07:04:06;9.10;99.90
31979;DHT22;18502;43.574;1.276;2023-04-03T07:06:33;9.10;99.90
31979;DHT22;18502;43.574;1.276;2023-04-03T07:08:59;9.10;99.90
31979;DHT22;18502;43.574;1.276;2023-04-03T07:11:25;9.10;99.90
31979;DHT22;18502;43.574;1.276;2023-04-03T07:13:51;9.10;99.90
31979;DHT22;18502;43.574;1.276;2023-04-03T07:16:18;9.20;99.90
31979;DHT22;18502;43.574;1.276;2023-04-03T07:18:44;9.20;99.90
31979;DHT22;18502;43.574;1.276;2023-04-03T07:21:10;9.20;99.90
31979;DHT22;18502;43.574;1.276;2023-04-03T07:23:36;9.50;99.90
31979;DHT22;18502;43.574;1.276;2023-04-03T07:26:02;9.40;99.90
31979;DHT22;18502;43.574;1.276;2023-04-03T07:28:28;9.50;99.90
31979;DHT22;18502;43.574;1.276;2023-04-03T07:31:01;9.60;99.90
31979;DHT22;18502;43.574;1.276;2023-04-03T07:33:28;9.60;99.90
31979;DHT22;18502;43.574;1.276;2023-04-03T07:35:54;9.60;99.90
31979;DHT22;18502;43.574;1.276;2023-04-03T07:38:20;9.70;99.90
31979;DHT22;18502;43.574;1.276;2023-04-03T07:40:47;9.90;99.90
31979;DHT22;18502;43.574;1.276;2023-04-03T07:43:13;9.80;99.90
31979;DHT22;18502;43.574;1.276;2023-04-03T07:45:39;9.80;99.90
31979;DHT22;18502;43.574;1.276;2023-04-03T07:48:05;9.90;99.90
31979;DHT22;18502;43.574;1.276;2023-04-03T07:50:30;9.80;99.90
31979;DHT22;18502;43.574;1.276;2023-04-03T07:52:57;10.00;99.90
31979;DHT22;18502;43.574;1.276;2023-04-03T07:55:23;9.90;99.90
31979;DHT22;18502;43.574;1.276;2023-04-03T07:57:49;10.00;99.90
31979;DHT22;18502;43.574;1.276;2023-04-03T08:00:16;10.10;99.90
31979;DHT22;18502;43.574;1.276;2023-04-03T08:02:43;10.00;99.90
31979;DHT22;18502;43.574;1.276;2023-04-03T08:05:10;9.80;99.90
31979;DHT22;18502;43.574;1.276;2023-04-03T08:07:37;9.90;99.90
31979;DHT22;18502;43.574;1.276;2023-04-03T08:10:04;9.80;99.90
31979;DHT22;18502;43.574;1.276;2023-04-03T08:12:30;9.80;99.90
31979;DHT22;18502;43.574;1.276;2023-04-03T08:14:57;9.70;99.90
31979;DHT22;18502;43.574;1.276;2023-04-03T08:17:24;9.80;99.90
31979;DHT22;18502;43.574;1.276;2023-04-03T08:19:50;10.00;99.90
31979;DHT22;18502;43.574;1.276;2023-04-03T08:22:16;10.50;99.90
31979;DHT22;18502;43.574;1.276;2023-04-03T08:24:41;10.60;99.90
31979;DHT22;18502;43.574;1.276;2023-04-03T08:27:07;10.80;99.90
31979;DHT22;18502;43.574;1.276;2023-04-03T08:29:33;10.70;99.90
31979;DHT22;18502;43.574;1.276;2023-04-03T08:31:58;10.50;99.90
31979;DHT22;18502;43.574;1.276;2023-04-03T08:34:24;10.60;99.90
31979;DHT22;18502;43.574;1.276;2023-04-03T08:36:50;10.60;99.90
31979;DHT22;18502;43.574;1.276;2023-04-03T08:39:15;10.50;99.90
31979;DHT22;18502;43.574;1.276;2023-04-03T08:41:43;10.70;99.90
31979;DHT22;18502;43.574;1.276;2023-04-03T08:44:31;10.50;99.90
31979;DHT22;18502;43.574;1.276;2023-04-03T08:49:42;10.60;99.90
31979;DHT22;18502;43.574;1.276;2023-04-03T08:52:29;10.50;99.90
31979;DHT22;18502;43.574;1.276;2023-04-03T08:54:59;10.40;99.90
31979;DHT22;18502;43.574;1.276;2023-04-03T08:57:28;10.60;99.90
31979;DHT22;18502;43.574;1.276;2023-04-03T08:59:57;10.60;99.90
31979;DHT22;18502;43.574;1.276;2023-04-03T09:02:35;10.60;99.90
31979;DHT22;18502;43.574;1.276;2023-04-03T09:05:18;10.50;99.90
31979;DHT22;18502;43.574;1.276;2023-04-03T09:07:47;10.40;99.90
31979;DHT22;18502;43.574;1.276;2023-04-03T09:10:18;10.40;99.90
31979;DHT22;18502;43.574;1.276;2023-04-03T09:12:59;10.20;99.80
31979;DHT22;18502;43.574;1.276;2023-04-03T09:15:26;10.50;99.90
31979;DHT22;18502;43.574;1.276;2023-04-03T09:18:15;10.40;99.50
31979;DHT22;18502;43.574;1.276;2023-04-03T09:26:01;12.00;97.50
31979;DHT22;18502;43.574;1.276;2023-04-03T09:28:33;12.20;95.50
31979;DHT22;18502;43.574;1.276;2023-04-03T09:31:00;12.80;95.60
31979;DHT22;18502;43.574;1.276;2023-04-03T09:33:26;12.50;94.40
31979;DHT22;18502;43.574;1.276;2023-04-03T09:35:52;13.00;95.20
31979;DHT22;18502;43.574;1.276;2023-04-03T09:38:21;13.00;93.80
31979;DHT22;18502;43.574;1.276;2023-04-03T09:40:51;13.20;93.40
31979;DHT22;18502;43.574;1.276;2023-04-03T09:43:33;12.90;91.80
31979;DHT22;18502;43.574;1.276;2023-04-03T09:49:10;14.40;89.00
31979;DHT22;18502;43.574;1.276;2023-04-03T09:51:37;14.50;88.60
31979;DHT22;18502;43.574;1.276;2023-04-03T09:57:03;14.50;86.00
31979;DHT22;18502;43.574;1.276;2023-04-03T09:59:31;13.90;88.70
31979;DHT22;18502;43.574;1.276;2023-04-03T10:02:03;14.70;86.10
31979;DHT22;18502;43.574;1.276;2023-04-03T10:04:40;14.10;86.00
31979;DHT22;18502;43.574;1.276;2023-04-03T10:10:01;14.60;84.90
31979;DHT22;18502;43.574;1.276;2023-04-03T10:12:29;14.30;81.70
31979;DHT22;18502;43.574;1.276;2023-04-03T10:14:56;15.40;81.20
31979;DHT22;18502;43.574;1.276;2023-04-03T10:17:37;16.00;79.00
31979;DHT22;18502;43.574;1.276;2023-04-03T10:26:06;16.20;77.40
31979;DHT22;18502;43.574;1.276;2023-04-03T10:34:02;15.90;72.00
31979;DHT22;18502;43.574;1.276;2023-04-03T10:37:03;14.20;73.80
31979;DHT22;18502;43.574;1.276;2023-04-03T10:39:59;14.30;75.80
31979;DHT22;18502;43.574;1.276;2023-04-03T10:45:26;14.40;76.90
31979;DHT22;18502;43.574;1.276;2023-04-03T10:51:29;14.70;76.30
31979;DHT22;18502;43.574;1.276;2023-04-03T10:56:44;14.80;76.40
31979;DHT22;18502;43.574;1.276;2023-04-03T11:01:56;15.80;73.90
31979;DHT22;18502;43.574;1.276;2023-04-03T11:04:27;15.60;73.10
31979;DHT22;18502;43.574;1.276;2023-04-03T11:07:15;16.10;69.70
31979;DHT22;18502;43.574;1.276;2023-04-03T11:09:44;16.00;69.30
31979;DHT22;18502;43.574;1.276;2023-04-03T11:12:44;16.70;68.30
31979;DHT22;18502;43.574;1.276;2023-04-03T11:15:16;16.50;68.80
31979;DHT22;18502;43.574;1.276;2023-04-03T11:17:50;16.40;66.40
31979;DHT22;18502;43.574;1.276;2023-04-03T11:20:28;18.00;66.10
31979;DHT22;18502;43.574;1.276;2023-04-03T11:23:43;18.00;62.70
31979;DHT22;18502;43.574;1.276;2023-04-03T11:25:54;17.80;63.50
31979;DHT22;18502;43.574;1.276;2023-04-03T11:28:20;16.00;64.00
31979;DHT22;18502;43.574;1.276;2023-04-03T11:38:48;16.10;67.60
31979;DHT22;18502;43.574;1.276;2023-04-03T11:41:15;16.20;65.50
31979;DHT22;18502;43.574;1.276;2023-04-03T11:43:55;16.60;65.80
31979;DHT22;18502;43.574;1.276;2023-04-03T11:46:22;16.60;63.10
31979;DHT22;18502;43.574;1.276;2023-04-03T11:48:49;17.20;62.20
31979;DHT22;18502;43.574;1.276;2023-04-03T11:53:53;17.70;62.90
31979;DHT22;18502;43.574;1.276;2023-04-03T12:04:11;17.10;63.20
31979;DHT22;18502;43.574;1.276;2023-04-03T12:09:23;16.10;63.80
31979;DHT22;18502;43.574;1.276;2023-04-03T12:11:49;15.60;63.60
31979;DHT22;18502;43.574;1.276;2023-04-03T12:14:16;15.40;61.30
31979;DHT22;18502;43.574;1.276;2023-04-03T12:16:43;15.10;63.10
31979;DHT22;18502;43.574;1.276;2023-04-03T12:24:32;16.20;63.90
31979;DHT22;18502;43.574;1.276;2023-04-03T12:27:21;16.70;64.30
31979;DHT22;18502;43.574;1.276;2023-04-03T12:35:37;17.00;58.30
31979;DHT22;18502;43.574;1.276;2023-04-03T12:38:37;16.70;60.70
31979;DHT22;18502;43.574;1.276;2023-04-03T12:41:38;21.20;51.80
31979;DHT22;18502;43.574;1.276;2023-04-03T12:44:24;24.40;39.90
31979;DHT22;18502;43.574;1.276;2023-04-03T12:46:53;20.30;46.10
31979;DHT22;18502;43.574;1.276;2023-04-03T12:51:56;18.20;51.30
31979;DHT22;18502;43.574;1.276;2023-04-03T12:54:27;17.70;50.20
31979;DHT22;18502;43.574;1.276;2023-04-03T12:57:17;17.30;53.40
31979;DHT22;18502;43.574;1.276;2023-04-03T12:59:44;17.40;53.80
31979;DHT22;18502;43.574;1.276;2023-04-03T13:02:24;16.70;55.70
31979;DHT22;18502;43.574;1.276;2023-04-03T13:04:52;16.60;57.50
31979;DHT22;18502;43.574;1.276;2023-04-03T13:07:30;17.50;56.60
31979;DHT22;18502;43.574;1.276;2023-04-03T13:15:15;18.30;52.50
31979;DHT22;18502;43.574;1.276;2023-04-03T13:17:42;19.10;52.50
31979;DHT22;18502;43.574;1.276;2023-04-03T13:20:29;19.70;50.40
31979;DHT22;18502;43.574;1.276;2023-04-03T13:23:04;19.80;50.20
31979;DHT22;18502;43.574;1.276;2023-04-03T13:25:33;18.70;50.50
31979;DHT22;18502;43.574;1.276;2023-04-03T13:28:01;19.90;51.30
31979;DHT22;18502;43.574;1.276;2023-04-03T13:30:29;18.90;51.40
31979;DHT22;18502;43.574;1.276;2023-04-03T13:32:57;19.00;50.30
31979;DHT22;18502;43.574;1.276;2023-04-03T13:37:57;17.10;54.00
31979;DHT22;18502;43.574;1.276;2023-04-03T13:40:23;16.20;54.50
31979;DHT22;18502;43.574;1.276;2023-04-03T13:43:17;16.10;56.20
31979;DHT22;18502;43.574;1.276;2023-04-03T13:48:36;17.30;54.30
31979;DHT22;18502;43.574;1.276;2023-04-03T13:51:21;17.10;55.60
31979;DHT22;18502;43.574;1.276;2023-04-03T13:53:58;17.70;55.30
31979;DHT22;18502;43.574;1.276;2023-04-03T13:56:26;17.90;54.10
31979;DHT22;18502;43.574;1.276;2023-04-03T14:04:26;18.30;52.10
31979;DHT22;18502;43.574;1.276;2023-04-03T14:06:53;19.00;50.20
31979;DHT22;18502;43.574;1.276;2023-04-03T14:09:21;20.00;49.70
31979;DHT22;18502;43.574;1.276;2023-04-03T14:11:50;20.80;46.90
31979;DHT22;18502;43.574;1.276;2023-04-03T14:14:27;25.90;41.80
31979;DHT22;18502;43.574;1.276;2023-04-03T14:16:57;23.20;40.10
31979;DHT22;18502;43.574;1.276;2023-04-03T14:19:33;19.80;47.90
31979;DHT22;18502;43.574;1.276;2023-04-03T14:22:05;19.50;48.30
31979;DHT22;18502;43.574;1.276;2023-04-03T14:24:32;19.30;49.00
31979;DHT22;18502;43.574;1.276;2023-04-03T14:26:57;18.40;48.80
31979;DHT22;18502;43.574;1.276;2023-04-03T14:29:24;18.30;51.20
31979;DHT22;18502;43.574;1.276;2023-04-03T14:31:51;18.10;51.60
31979;DHT22;18502;43.574;1.276;2023-04-03T14:34:17;18.00;51.10
31979;DHT22;18502;43.574;1.276;2023-04-03T14:36:44;17.80;53.30
31979;DHT22;18502;43.574;1.276;2023-04-03T14:39:18;17.20;52.10
31979;DHT22;18502;43.574;1.276;2023-04-03T14:41:44;16.20;53.20
31979;DHT22;18502;43.574;1.276;2023-04-03T14:44:10;16.00;55.90
31979;DHT22;18502;43.574;1.276;2023-04-03T14:46:39;15.90;55.30
31979;DHT22;18502;43.574;1.276;2023-04-03T14:49:18;15.40;56.40
31979;DHT22;18502;43.574;1.276;2023-04-03T14:51:44;15.40;55.90
31979;DHT22;18502;43.574;1.276;2023-04-03T14:54:16;15.00;56.00
31979;DHT22;18502;43.574;1.276;2023-04-03T14:56:42;15.00;57.00
31979;DHT22;18502;43.574;1.276;2023-04-03T14:59:14;14.80;57.80
31979;DHT22;18502;43.574;1.276;2023-04-03T15:01:41;15.10;58.70
31979;DHT22;18502;43.574;1.276;2023-04-03T15:04:17;15.40;58.80
31979;DHT22;18502;43.574;1.276;2023-04-03T15:06:44;15.20;59.60
31979;DHT22;18502;43.574;1.276;2023-04-03T15:09:25;14.90;59.80
31979;DHT22;18502;43.574;1.276;2023-04-03T15:11:52;14.80;61.00
31979;DHT22;18502;43.574;1.276;2023-04-03T15:14:19;15.00;61.60
31979;DHT22;18502;43.574;1.276;2023-04-03T15:16:45;14.80;59.40
31979;DHT22;18502;43.574;1.276;2023-04-03T15:19:11;14.80;61.10
31979;DHT22;18502;43.574;1.276;2023-04-03T15:21:38;15.40;59.40
31979;DHT22;18502;43.574;1.276;2023-04-03T15:24:04;15.70;57.90
31979;DHT22;18502;43.574;1.276;2023-04-03T15:26:31;16.00;59.60
31979;DHT22;18502;43.574;1.276;2023-04-03T15:28:57;16.00;59.00
31979;DHT22;18502;43.574;1.276;2023-04-03T15:31:23;15.70;57.20
31979;DHT22;18502;43.574;1.276;2023-04-03T15:33:48;15.70;57.50
31979;DHT22;18502;43.574;1.276;2023-04-03T15:36:14;15.50;57.90
31979;DHT22;18502;43.574;1.276;2023-04-03T15:38:40;15.60;58.10
31979;DHT22;18502;43.574;1.276;2023-04-03T15:41:06;15.10;57.00
31979;DHT22;18502;43.574;1.276;2023-04-03T15:43:32;15.20;58.30
31979;DHT22;18502;43.574;1.276;2023-04-03T15:45:59;15.80;57.10
31979;DHT22;18502;43.574;1.276;2023-04-03T15:48:26;16.10;56.60
31979;DHT22;18502;43.574;1.276;2023-04-03T15:50:52;16.20;54.70
31979;DHT22;18502;43.574;1.276;2023-04-03T15:53:18;17.90;54.00
31979;DHT22;18502;43.574;1.276;2023-04-03T15:55:43;17.40;53.40
31979;DHT22;18502;43.574;1.276;2023-04-03T15:58:09;17.20;54.40
31979;DHT22;18502;43.574;1.276;2023-04-03T16:00:36;17.10;54.60
31979;DHT22;18502;43.574;1.276;2023-04-03T16:03:05;16.60;54.70
31979;DHT22;18502;43.574;1.276;2023-04-03T16:05:33;16.80;55.40
31979;DHT22;18502;43.574;1.276;2023-04-03T16:08:00;16.90;55.20
31979;DHT22;18502;43.574;1.276;2023-04-03T16:10:26;17.10;54.80
31979;DHT22;18502;43.574;1.276;2023-04-03T16:12:52;16.50;55.70
31979;DHT22;18502;43.574;1.276;2023-04-03T16:15:18;17.80;56.50
31979;DHT22;18502;43.574;1.276;2023-04-03T16:17:44;17.10;54.10
31979;DHT22;18502;43.574;1.276;2023-04-03T16:20:11;15.80;57.10
31979;DHT22;18502;43.574;1.276;2023-04-03T16:22:38;15.20;58.30
31979;DHT22;18502;43.574;1.276;2023-04-03T16:25:06;15.00;60.60
31979;DHT22;18502;43.574;1.276;2023-04-03T16:27:31;14.70;60.00
31979;DHT22;18502;43.574;1.276;2023-04-03T16:29:58;14.60;60.90
31979;DHT22;18502;43.574;1.276;2023-04-03T16:32:27;14.40;61.00
31979;DHT22;18502;43.574;1.276;2023-04-03T16:34:55;14.00;61.90
31979;DHT22;18502;43.574;1.276;2023-04-03T16:37:20;14.10;62.30
31979;DHT22;18502;43.574;1.276;2023-04-03T16:39:46;14.10;61.10
31979;DHT22;18502;43.574;1.276;2023-04-03T16:42:12;14.30;61.70
31979;DHT22;18502;43.574;1.276;2023-04-03T16:44:38;14.50;61.00
31979;DHT22;18502;43.574;1.276;2023-04-03T16:47:05;15.00;60.30
31979;DHT22;18502;43.574;1.276;2023-04-03T16:49:31;18.70;52.90
31979;DHT22;18502;43.574;1.276;2023-04-03T16:52:00;21.30;46.70
31979;DHT22;18502;43.574;1.276;2023-04-03T16:54:26;21.20;45.20
31979;DHT22;18502;43.574;1.276;2023-04-03T16:56:52;17.80;50.00
31979;DHT22;18502;43.574;1.276;2023-04-03T16:59:18;17.10;54.00
31979;DHT22;18502;43.574;1.276;2023-04-03T17:01:43;18.40;51.80
31979;DHT22;18502;43.574;1.276;2023-04-03T17:04:09;19.60;48.20
31979;DHT22;18502;43.574;1.276;2023-04-03T17:06:35;21.20;46.90
31979;DHT22;18502;43.574;1.276;2023-04-03T17:09:00;21.80;45.30
31979;DHT22;18502;43.574;1.276;2023-04-03T17:11:27;21.00;46.40
31979;DHT22;18502;43.574;1.276;2023-04-03T17:13:53;20.10;46.80
31979;DHT22;18502;43.574;1.276;2023-04-03T17:16:19;20.70;46.50
31979;DHT22;18502;43.574;1.276;2023-04-03T17:18:47;19.80;47.90
31979;DHT22;18502;43.574;1.276;2023-04-03T17:21:13;16.60;53.10
31979;DHT22;18502;43.574;1.276;2023-04-03T17:23:41;15.80;55.40